createdAt,value
2022-12-27T00:00:28.283Z,0.00
2022-12-27T00:01:28.204Z,0.00
2022-12-27T00:02:28.237Z,0.00
2022-12-27T00:03:28.189Z,0.00
2022-12-27T00:04:28.182Z,0.00
2022-12-27T00:05:28.200Z,0.00
2022-12-27T00:06:28.165Z,0.00
2022-12-27T00:07:28.167Z,0.00
2022-12-27T00:08:28.154Z,0.00
2022-12-27T00:09:28.141Z,0.00
2022-12-27T00:10:28.162Z,0.00
2022-12-27T00:11:28.134Z,0.00
2022-12-27T00:12:28.115Z,0.00
2022-12-27T00:13:28.109Z,0.00
2022-12-27T00:14:28.103Z,0.00
2022-12-27T00:15:28.116Z,0.00
2022-12-27T00:16:28.101Z,0.00
2022-12-27T00:17:28.079Z,0.00
2022-12-27T00:18:28.066Z,0.00
2022-12-27T00:19:28.064Z,0.00
2022-12-27T00:20:28.082Z,0.00
2022-12-27T00:21:28.042Z,0.00
2022-12-27T00:22:28.034Z,0.00
2022-12-27T00:23:28.027Z,0.00
2022-12-27T00:24:28.019Z,0.00
2022-12-27T00:25:28.048Z,0.00
2022-12-27T00:26:28.015Z,0.00
2022-12-27T00:27:28.001Z,0.00
2022-12-27T00:28:27.992Z,0.00
2022-12-27T00:29:27.983Z,0.00
2022-12-27T00:30:27.999Z,0.00
2022-12-27T00:31:28.015Z,0.00
2022-12-27T00:32:27.972Z,0.00
2022-12-27T00:33:27.955Z,0.00
2022-12-27T00:34:27.946Z,0.00
2022-12-27T00:35:28.344Z,0.00
2022-12-27T00:36:27.930Z,0.00
2022-12-27T00:37:27.922Z,0.00
2022-12-27T00:38:27.919Z,0.00
2022-12-27T00:39:27.903Z,0.00
2022-12-27T00:40:27.926Z,0.00
2022-12-27T00:41:27.903Z,0.00
2022-12-27T00:42:27.890Z,0.00
2022-12-27T00:43:27.877Z,0.00
2022-12-27T00:44:27.868Z,0.00
2022-12-27T00:45:27.909Z,0.00
2022-12-27T00:46:27.851Z,0.00
2022-12-27T00:47:27.842Z,0.00
2022-12-27T00:48:27.838Z,0.00
2022-12-27T00:49:27.831Z,0.00
2022-12-27T00:50:27.849Z,0.00
2022-12-27T00:51:27.818Z,0.00
2022-12-27T00:52:27.805Z,0.00
2022-12-27T00:53:27.803Z,0.00
2022-12-27T00:54:27.797Z,0.00
2022-12-27T00:55:27.808Z,0.00
2022-12-27T00:56:27.786Z,0.00
2022-12-27T00:57:27.770Z,0.00
2022-12-27T00:58:27.765Z,0.00
2022-12-27T00:59:27.758Z,0.00
2022-12-27T01:00:27.776Z,0.00
2022-12-27T01:01:27.856Z,0.00
2022-12-27T01:02:27.730Z,0.00
2022-12-27T01:03:27.752Z,0.00
2022-12-27T01:04:27.718Z,0.00
2022-12-27T01:05:27.736Z,0.00
2022-12-27T01:06:27.699Z,0.00
2022-12-27T01:07:27.696Z,0.00
2022-12-27T01:08:27.685Z,0.00
2022-12-27T01:09:27.677Z,0.00
2022-12-27T01:10:27.695Z,0.00
2022-12-27T01:11:27.662Z,0.00
2022-12-27T01:12:27.651Z,0.00
2022-12-27T01:13:27.647Z,0.00
2022-12-27T01:14:27.635Z,0.00
2022-12-27T01:15:27.656Z,0.00
2022-12-27T01:16:27.656Z,0.00
2022-12-27T01:17:27.616Z,0.00
2022-12-27T01:18:27.632Z,0.00
2022-12-27T01:19:27.610Z,0.00
2022-12-27T01:20:27.630Z,0.00
2022-12-27T01:21:27.579Z,0.00
2022-12-27T01:22:27.578Z,0.00
2022-12-27T01:23:27.571Z,0.00
2022-12-27T01:24:27.560Z,0.00
2022-12-27T01:25:27.597Z,0.00
2022-12-27T01:26:27.559Z,0.00
2022-12-27T01:27:27.539Z,0.00
2022-12-27T01:28:27.536Z,0.00
2022-12-27T01:29:27.526Z,0.00
2022-12-27T01:30:27.558Z,0.00
2022-12-27T01:31:28.568Z,0.00
2022-12-27T01:32:27.497Z,0.00
2022-12-27T01:33:27.491Z,0.00
2022-12-27T01:34:27.491Z,0.00
2022-12-27T01:35:27.504Z,0.00
2022-12-27T01:36:27.466Z,0.00
2022-12-27T01:37:27.459Z,0.00
2022-12-27T01:38:27.449Z,0.00
2022-12-27T01:39:27.445Z,0.00
2022-12-27T01:40:27.463Z,0.00
2022-12-27T01:41:27.431Z,0.00
2022-12-27T01:42:27.420Z,0.00
2022-12-27T01:43:27.413Z,0.00
2022-12-27T01:44:27.408Z,0.00
2022-12-27T01:45:27.481Z,0.00
2022-12-27T01:46:27.392Z,0.00
2022-12-27T01:47:27.402Z,0.00
2022-12-27T01:48:27.376Z,0.00
2022-12-27T01:49:27.368Z,0.00
2022-12-27T01:50:27.389Z,0.00
2022-12-27T01:51:27.350Z,0.00
2022-12-27T01:52:27.342Z,0.00
2022-12-27T01:53:27.333Z,0.00
2022-12-27T01:54:27.334Z,0.00
2022-12-27T01:55:27.353Z,0.00
2022-12-27T01:56:27.301Z,0.00
2022-12-27T01:57:28.300Z,0.00
2022-12-27T01:58:27.309Z,0.00
2022-12-27T01:59:27.286Z,0.00
2022-12-27T02:00:27.311Z,0.00
2022-12-27T02:01:27.429Z,0.00
2022-12-27T02:02:27.363Z,0.00
2022-12-27T02:03:27.260Z,0.00
2022-12-27T02:04:27.250Z,0.00
2022-12-27T02:05:27.274Z,0.00
2022-12-27T02:06:27.234Z,0.00
2022-12-27T02:07:27.229Z,0.00
2022-12-27T02:08:27.216Z,0.00
2022-12-27T02:09:27.214Z,0.00
2022-12-27T02:10:27.234Z,0.00
2022-12-27T02:11:27.195Z,0.00
2022-12-27T02:12:27.185Z,0.00
2022-12-27T02:13:27.181Z,0.00
2022-12-27T02:14:28.334Z,0.00
2022-12-27T02:15:28.192Z,0.00
2022-12-27T02:16:28.165Z,0.00
2022-12-27T02:17:27.153Z,0.00
2022-12-27T02:18:27.141Z,0.00
2022-12-27T02:19:27.137Z,0.00
2022-12-27T02:20:27.129Z,0.00
2022-12-27T02:21:27.142Z,0.00
2022-12-27T02:22:27.113Z,0.00
2022-12-27T02:23:27.118Z,0.00
2022-12-27T02:24:27.093Z,0.00
2022-12-27T02:25:27.085Z,0.00
2022-12-27T02:26:27.120Z,0.00
2022-12-27T02:27:27.078Z,0.00
2022-12-27T02:28:27.074Z,0.00
2022-12-27T02:29:27.079Z,0.00
2022-12-27T02:30:27.096Z,0.00
2022-12-27T02:31:27.068Z,0.00
2022-12-27T02:32:27.037Z,0.00
2022-12-27T02:33:27.028Z,0.00
2022-12-27T02:34:27.020Z,0.00
2022-12-27T02:35:27.007Z,0.00
2022-12-27T02:36:27.027Z,0.00
2022-12-27T02:37:26.993Z,0.00
2022-12-27T02:38:26.987Z,0.00
2022-12-27T02:39:26.982Z,0.00
2022-12-27T02:40:26.971Z,0.00
2022-12-27T02:41:26.987Z,0.00
2022-12-27T02:42:26.960Z,0.00
2022-12-27T02:43:26.956Z,0.00
2022-12-27T02:44:26.941Z,0.00
2022-12-27T02:45:26.939Z,0.00
2022-12-27T02:46:27.000Z,0.00
2022-12-27T02:47:26.917Z,0.00
2022-12-27T02:48:26.910Z,0.00
2022-12-27T02:49:26.907Z,0.00
2022-12-27T02:50:26.905Z,0.00
2022-12-27T02:51:26.914Z,0.00
2022-12-27T02:52:26.884Z,0.00
2022-12-27T02:53:26.891Z,0.00
2022-12-27T02:54:26.866Z,0.00
2022-12-27T02:55:26.860Z,0.00
2022-12-27T02:56:26.890Z,0.00
2022-12-27T02:57:26.858Z,0.00
2022-12-27T02:58:26.819Z,0.00
2022-12-27T02:59:27.834Z,0.00
2022-12-27T03:00:26.825Z,0.00
2022-12-27T03:01:26.961Z,0.00
2022-12-27T03:02:26.954Z,0.00
2022-12-27T03:03:26.800Z,0.00
2022-12-27T03:04:26.786Z,0.00
2022-12-27T03:05:26.785Z,0.00
2022-12-27T03:06:26.805Z,0.00
2022-12-27T03:07:26.782Z,0.00
2022-12-27T03:08:26.766Z,0.00
2022-12-27T03:09:26.758Z,0.00
2022-12-27T03:10:26.764Z,0.00
2022-12-27T03:11:26.743Z,0.00
2022-12-27T03:12:27.762Z,0.00
2022-12-27T03:13:26.729Z,0.00
2022-12-27T03:14:26.719Z,0.00
2022-12-27T03:15:30.487Z,0.00
2022-12-27T03:16:28.742Z,0.00
2022-12-27T03:17:26.732Z,0.00
2022-12-27T03:18:26.697Z,0.00
2022-12-27T03:19:26.683Z,0.00
2022-12-27T03:20:26.695Z,0.00
2022-12-27T03:21:26.684Z,0.00
2022-12-27T03:22:26.681Z,0.00
2022-12-27T03:23:26.651Z,0.00
2022-12-27T03:24:26.648Z,0.00
2022-12-27T03:25:26.641Z,0.00
2022-12-27T03:26:26.632Z,0.00
2022-12-27T03:27:26.647Z,0.00
2022-12-27T03:28:26.633Z,0.00
2022-12-27T03:29:26.605Z,0.00
2022-12-27T03:30:26.601Z,0.00
2022-12-27T03:31:26.594Z,0.00
2022-12-27T03:32:26.612Z,0.00
2022-12-27T03:33:26.584Z,0.00
2022-12-27T03:34:26.577Z,0.00
2022-12-27T03:35:26.574Z,0.00
2022-12-27T03:36:26.565Z,0.00
2022-12-27T03:37:26.575Z,0.00
2022-12-27T03:38:26.550Z,0.00
2022-12-27T03:39:26.544Z,0.00
2022-12-27T03:40:26.529Z,0.00
2022-12-27T03:41:26.571Z,0.00
2022-12-27T03:42:26.559Z,0.00
2022-12-27T03:43:26.503Z,0.00
2022-12-27T03:44:27.497Z,0.00
2022-12-27T03:45:26.493Z,0.00
2022-12-27T03:46:26.536Z,0.00
2022-12-27T03:47:26.511Z,0.00
2022-12-27T03:48:26.467Z,0.00
2022-12-27T03:49:26.474Z,0.00
2022-12-27T03:50:26.456Z,0.00
2022-12-27T03:51:26.483Z,0.00
2022-12-27T03:52:26.474Z,0.00
2022-12-27T03:53:26.423Z,0.00
2022-12-27T03:54:26.584Z,0.00
2022-12-27T03:55:33.002Z,0.00
2022-12-27T03:56:28.408Z,0.00
2022-12-27T03:57:26.405Z,0.00
2022-12-27T03:58:26.416Z,0.00
2022-12-27T03:59:26.386Z,0.00
2022-12-27T04:00:26.377Z,0.00
2022-12-27T04:01:26.474Z,0.00
2022-12-27T04:02:26.578Z,0.00
2022-12-27T04:03:26.514Z,0.00
2022-12-27T04:04:26.359Z,0.00
2022-12-27T04:05:26.340Z,0.00
2022-12-27T04:06:26.332Z,0.00
2022-12-27T04:07:26.324Z,0.00
2022-12-27T04:08:26.344Z,0.00
2022-12-27T04:09:26.307Z,0.00
2022-12-27T04:10:26.302Z,0.00
2022-12-27T04:11:26.294Z,0.00
2022-12-27T04:12:26.289Z,0.00
2022-12-27T04:13:26.306Z,0.00
2022-12-27T04:14:26.281Z,0.00
2022-12-27T04:15:26.259Z,0.00
2022-12-27T04:16:26.315Z,0.00
2022-12-27T04:17:26.244Z,0.00
2022-12-27T04:18:26.260Z,0.00
2022-12-27T04:19:26.226Z,0.00
2022-12-27T04:20:26.213Z,0.00
2022-12-27T04:21:26.211Z,0.00
2022-12-27T04:22:26.208Z,0.00
2022-12-27T04:23:26.220Z,0.00
2022-12-27T04:24:26.198Z,0.00
2022-12-27T04:25:26.177Z,0.00
2022-12-27T04:26:26.178Z,0.00
2022-12-27T04:27:26.174Z,0.00
2022-12-27T04:28:26.228Z,0.00
2022-12-27T04:29:26.158Z,0.00
2022-12-27T04:30:26.143Z,0.00
2022-12-27T04:31:26.218Z,0.00
2022-12-27T04:32:26.126Z,0.00
2022-12-27T04:33:26.155Z,0.00
2022-12-27T04:34:26.110Z,0.00
2022-12-27T04:35:26.103Z,0.00
2022-12-27T04:36:26.090Z,0.00
2022-12-27T04:37:26.090Z,0.00
2022-12-27T04:38:26.109Z,0.00
2022-12-27T04:39:26.076Z,0.00
2022-12-27T04:40:26.065Z,0.00
2022-12-27T04:41:26.055Z,0.00
2022-12-27T04:42:26.059Z,0.00
2022-12-27T04:43:26.051Z,0.00
2022-12-27T04:44:26.054Z,0.00
2022-12-27T04:45:26.027Z,0.00
2022-12-27T04:46:26.046Z,0.00
2022-12-27T04:47:26.018Z,0.00
2022-12-27T04:48:25.998Z,0.00
2022-12-27T04:49:26.031Z,0.00
2022-12-27T04:50:25.999Z,0.00
2022-12-27T04:51:25.987Z,0.00
2022-12-27T04:52:25.976Z,0.00
2022-12-27T04:53:25.958Z,0.00
2022-12-27T04:54:25.990Z,0.00
2022-12-27T04:55:25.944Z,0.00
2022-12-27T04:56:25.934Z,0.00
2022-12-27T04:57:25.942Z,0.00
2022-12-27T04:58:25.938Z,0.00
2022-12-27T04:59:25.949Z,0.00
2022-12-27T05:00:25.917Z,0.00
2022-12-27T05:01:26.002Z,0.00
2022-12-27T05:02:26.062Z,0.00
2022-12-27T05:03:25.940Z,0.00
2022-12-27T05:04:25.915Z,0.00
2022-12-27T05:05:25.862Z,0.00
2022-12-27T05:06:25.882Z,0.00
2022-12-27T05:07:25.850Z,0.00
2022-12-27T05:08:25.850Z,0.00
2022-12-27T05:09:25.838Z,0.00
2022-12-27T05:10:25.866Z,0.00
2022-12-27T05:11:25.826Z,0.00
2022-12-27T05:12:25.818Z,0.00
2022-12-27T05:13:25.819Z,0.00
2022-12-27T05:14:25.799Z,0.00
2022-12-27T05:15:25.833Z,0.00
2022-12-27T05:16:25.864Z,0.00
2022-12-27T05:17:25.766Z,0.00
2022-12-27T05:18:26.771Z,0.00
2022-12-27T05:19:25.775Z,0.00
2022-12-27T05:20:25.785Z,0.00
2022-12-27T05:21:25.762Z,0.00
2022-12-27T05:22:25.744Z,0.00
2022-12-27T05:23:25.761Z,0.00
2022-12-27T05:24:25.728Z,0.00
2022-12-27T05:25:25.718Z,0.00
2022-12-27T05:26:25.707Z,0.00
2022-12-27T05:27:25.701Z,0.00
2022-12-27T05:28:25.745Z,0.00
2022-12-27T05:29:25.685Z,0.00
2022-12-27T05:30:25.676Z,0.00
2022-12-27T05:31:25.699Z,0.00
2022-12-27T05:32:25.659Z,0.00
2022-12-27T05:33:25.692Z,0.00
2022-12-27T05:34:25.656Z,0.00
2022-12-27T05:35:25.639Z,0.00
2022-12-27T05:36:25.655Z,0.00
2022-12-27T05:37:25.616Z,0.00
2022-12-27T05:38:25.672Z,0.00
2022-12-27T05:39:25.624Z,0.00
2022-12-27T05:40:25.597Z,0.00
2022-12-27T05:41:25.594Z,0.00
2022-12-27T05:42:25.589Z,0.00
2022-12-27T05:43:25.580Z,0.00
2022-12-27T05:44:25.593Z,0.00
2022-12-27T05:45:25.555Z,0.00
2022-12-27T05:46:25.591Z,0.00
2022-12-27T05:47:25.547Z,0.00
2022-12-27T05:48:25.546Z,0.00
2022-12-27T05:49:25.555Z,0.00
2022-12-27T05:50:25.520Z,0.00
2022-12-27T05:51:25.512Z,0.00
2022-12-27T05:52:25.509Z,0.00
2022-12-27T05:53:25.495Z,0.00
2022-12-27T05:54:25.520Z,0.00
2022-12-27T05:55:25.483Z,0.00
2022-12-27T05:56:25.474Z,0.00
2022-12-27T05:57:25.463Z,0.00
2022-12-27T05:58:25.469Z,0.00
2022-12-27T05:59:25.471Z,0.00
2022-12-27T06:00:25.441Z,0.00
2022-12-27T06:01:25.468Z,0.00
2022-12-27T06:02:25.512Z,0.00
2022-12-27T06:03:25.495Z,0.00
2022-12-27T06:04:25.437Z,0.00
2022-12-27T06:05:25.397Z,0.00
2022-12-27T06:06:25.392Z,0.00
2022-12-27T06:07:25.382Z,0.00
2022-12-27T06:08:25.370Z,0.00
2022-12-27T06:09:25.395Z,0.00
2022-12-27T06:10:25.371Z,0.00
2022-12-27T06:11:25.358Z,0.00
2022-12-27T06:12:25.351Z,0.00
2022-12-27T06:13:25.348Z,0.00
2022-12-27T06:14:25.362Z,0.00
2022-12-27T06:15:25.320Z,0.00
2022-12-27T06:16:25.340Z,0.00
2022-12-27T06:17:25.303Z,0.00
2022-12-27T06:18:25.298Z,0.00
2022-12-27T06:19:25.332Z,0.00
2022-12-27T06:20:25.285Z,0.00
2022-12-27T06:21:25.274Z,0.00
2022-12-27T06:22:25.270Z,0.00
2022-12-27T06:23:25.269Z,0.00
2022-12-27T06:24:25.244Z,0.00
2022-12-27T06:25:25.289Z,0.00
2022-12-27T06:26:25.237Z,0.00
2022-12-27T06:27:25.226Z,0.00
2022-12-27T06:28:25.216Z,0.00
2022-12-27T06:29:25.216Z,0.00
2022-12-27T06:30:25.228Z,0.00
2022-12-27T06:31:25.237Z,0.00
2022-12-27T06:32:25.181Z,0.00
2022-12-27T06:33:25.273Z,0.00
2022-12-27T06:34:25.178Z,0.00
2022-12-27T06:35:25.189Z,0.00
2022-12-27T06:36:25.151Z,0.00
2022-12-27T06:37:25.142Z,0.00
2022-12-27T06:38:25.135Z,0.00
2022-12-27T06:39:25.128Z,0.00
2022-12-27T06:40:25.145Z,0.00
2022-12-27T06:41:25.111Z,0.00
2022-12-27T06:42:25.107Z,0.00
2022-12-27T06:43:25.097Z,0.00
2022-12-27T06:44:25.091Z,0.00
2022-12-27T06:45:25.200Z,0.00
2022-12-27T06:46:25.178Z,4.00
2022-12-27T06:47:25.069Z,0.00
2022-12-27T06:48:25.072Z,4.00
2022-12-27T06:49:25.054Z,0.00
2022-12-27T06:50:25.081Z,0.00
2022-12-27T06:51:25.047Z,4.00
2022-12-27T06:52:25.033Z,0.00
2022-12-27T06:53:25.026Z,4.00
2022-12-27T06:54:26.040Z,4.00
2022-12-27T06:55:25.008Z,4.00
2022-12-27T06:56:25.038Z,8.00
2022-12-27T06:57:24.985Z,8.00
2022-12-27T06:58:24.982Z,8.00
2022-12-27T06:59:24.972Z,4.00
2022-12-27T07:00:24.962Z,8.00
2022-12-27T07:01:25.047Z,8.00
2022-12-27T07:02:25.099Z,12.00
2022-12-27T07:03:24.944Z,12.00
2022-12-27T07:04:24.931Z,16.00
2022-12-27T07:05:24.924Z,16.00
2022-12-27T07:06:24.985Z,20.00
2022-12-27T07:07:24.911Z,20.00
2022-12-27T07:08:24.899Z,20.00
2022-12-27T07:09:24.896Z,20.00
2022-12-27T07:10:24.889Z,24.00
2022-12-27T07:11:24.903Z,36.00
2022-12-27T07:12:24.873Z,44.00
2022-12-27T07:13:24.840Z,56.00
2022-12-27T07:14:25.871Z,52.00
2022-12-27T07:15:24.867Z,52.00
2022-12-27T07:16:24.952Z,60.00
2022-12-27T07:17:24.826Z,68.00
2022-12-27T07:18:24.820Z,88.00
2022-12-27T07:19:24.809Z,112.00
2022-12-27T07:20:24.806Z,124.00
2022-12-27T07:21:24.793Z,128.00
2022-12-27T07:22:24.811Z,140.00
2022-12-27T07:23:24.775Z,148.00
2022-12-27T07:24:24.849Z,184.00
2022-12-27T07:25:24.764Z,200.00
2022-12-27T07:26:24.756Z,228.00
2022-12-27T07:27:24.772Z,252.00
2022-12-27T07:28:24.748Z,260.00
2022-12-27T07:29:24.725Z,276.00
2022-12-27T07:30:24.719Z,284.00
2022-12-27T07:31:24.786Z,324.00
2022-12-27T07:32:24.729Z,320.00
2022-12-27T07:33:24.705Z,328.00
2022-12-27T07:34:24.692Z,384.00
2022-12-27T07:35:24.687Z,452.00
2022-12-27T07:36:24.684Z,488.00
2022-12-27T07:37:24.693Z,484.00
2022-12-27T07:38:24.662Z,404.00
2022-12-27T07:39:24.659Z,380.00
2022-12-27T07:40:24.644Z,412.00
2022-12-27T07:41:24.647Z,440.00
2022-12-27T07:42:25.661Z,408.00
2022-12-27T07:43:24.628Z,392.00
2022-12-27T07:44:24.617Z,356.00
2022-12-27T07:45:24.605Z,320.00
2022-12-27T07:46:24.618Z,348.00
2022-12-27T07:47:24.624Z,368.00
2022-12-27T07:48:24.584Z,408.00
2022-12-27T07:49:24.574Z,460.00
2022-12-27T07:50:25.049Z,524.00
2022-12-27T07:51:24.562Z,652.00
2022-12-27T07:52:24.595Z,732.00
2022-12-27T07:53:24.550Z,840.00
2022-12-27T07:54:24.549Z,772.00
2022-12-27T07:55:24.528Z,684.00
2022-12-27T07:56:26.675Z,652.00
2022-12-27T07:57:25.548Z,704.00
2022-12-27T07:58:24.515Z,672.00
2022-12-27T07:59:24.507Z,656.00
2022-12-27T08:00:24.482Z,600.00
2022-12-27T08:01:25.594Z,516.00
2022-12-27T08:02:24.590Z,512.00
2022-12-27T08:03:24.556Z,468.00
2022-12-27T08:04:24.463Z,520.00
2022-12-27T08:05:27.893Z,604.00
2022-12-27T08:06:25.467Z,800.00
2022-12-27T08:07:24.469Z,1008.00
2022-12-27T08:08:24.436Z,1108.00
2022-12-27T08:09:24.428Z,1072.00
2022-12-27T08:10:24.410Z,1148.00
2022-12-27T08:11:24.408Z,1184.00
2022-12-27T08:12:24.403Z,1384.00
2022-12-27T08:13:24.413Z,1676.00
2022-12-27T08:14:24.392Z,1828.00
2022-12-27T08:15:24.370Z,1920.00
2022-12-27T08:16:24.446Z,1704.00
2022-12-27T08:17:24.350Z,1576.00
2022-12-27T08:18:24.374Z,1420.00
2022-12-27T08:19:24.342Z,2152.00
2022-12-27T08:20:24.336Z,2576.00
2022-12-27T08:21:24.334Z,2344.00
2022-12-27T08:22:24.317Z,2288.00
2022-12-27T08:23:24.324Z,2204.00
2022-12-27T08:24:25.297Z,2136.00
2022-12-27T08:25:24.305Z,2400.00
2022-12-27T08:26:24.296Z,2600.00
2022-12-27T08:27:24.287Z,2880.00
2022-12-27T08:28:24.301Z,2892.00
2022-12-27T08:29:24.265Z,2932.00
2022-12-27T08:30:24.256Z,2744.00
2022-12-27T08:31:24.281Z,2792.00
2022-12-27T08:32:24.243Z,2644.00
2022-12-27T08:33:24.254Z,2544.00
2022-12-27T08:34:24.225Z,2164.00
2022-12-27T08:35:51.721Z,1952.00
2022-12-27T08:36:54.101Z,1964.00
2022-12-27T08:37:26.197Z,2164.00
2022-12-27T08:38:24.216Z,2232.00
2022-12-27T08:39:24.187Z,2472.00
2022-12-27T08:40:24.178Z,2772.00
2022-12-27T08:41:24.180Z,2924.00
2022-12-27T08:42:24.175Z,2308.00
2022-12-27T08:43:24.178Z,2108.00
2022-12-27T08:44:24.165Z,1832.00
2022-12-27T08:45:24.132Z,1772.00
2022-12-27T08:46:24.148Z,1696.00
2022-12-27T08:47:24.131Z,1752.00
2022-12-27T08:48:24.210Z,1884.00
2022-12-27T08:49:24.101Z,1552.00
2022-12-27T08:50:24.099Z,1492.00
2022-12-27T08:51:34.276Z,1500.00
2022-12-27T08:52:26.081Z,1328.00
2022-12-27T08:53:24.096Z,1652.00
2022-12-27T08:54:24.063Z,1524.00
2022-12-27T08:55:24.059Z,1600.00
2022-12-27T08:56:24.070Z,2016.00
2022-12-27T08:57:24.055Z,2044.00
2022-12-27T08:58:24.071Z,1756.00
2022-12-27T08:59:24.038Z,1584.00
2022-12-27T09:00:24.032Z,1924.00
2022-12-27T09:01:24.070Z,2140.00
2022-12-27T09:02:24.114Z,1996.00
2022-12-27T09:03:24.030Z,2252.00
2022-12-27T09:04:24.018Z,2396.00
2022-12-27T09:05:23.977Z,2324.00
2022-12-27T09:06:23.993Z,2664.00
2022-12-27T09:07:23.970Z,2536.00
2022-12-27T09:08:23.969Z,2708.00
2022-12-27T09:09:23.976Z,2888.00
2022-12-27T09:10:23.945Z,2664.00
2022-12-27T09:11:23.943Z,2948.00
2022-12-27T09:12:23.927Z,3416.00
2022-12-27T09:13:23.922Z,3072.00
2022-12-27T09:14:23.947Z,3176.00
2022-12-27T09:15:23.926Z,2664.00
2022-12-27T09:16:23.893Z,2408.00
2022-12-27T09:17:23.887Z,2688.00
2022-12-27T09:18:23.907Z,3056.00
2022-12-27T09:19:23.900Z,3404.00
2022-12-27T09:20:23.931Z,3252.00
2022-12-27T09:21:23.861Z,3260.00
2022-12-27T09:22:23.856Z,3464.00
2022-12-27T09:23:23.841Z,3688.00
2022-12-27T09:24:23.858Z,4268.00
2022-12-27T09:25:23.844Z,6068.00
2022-12-27T09:26:23.818Z,4372.00
2022-12-27T09:27:23.807Z,3468.00
2022-12-27T09:28:23.801Z,3144.00
2022-12-27T09:29:23.817Z,3256.00
2022-12-27T09:30:23.832Z,5008.00
2022-12-27T09:31:23.820Z,3428.00
2022-12-27T09:32:23.769Z,4012.00
2022-12-27T09:33:23.765Z,6004.00
2022-12-27T09:34:23.786Z,3368.00
2022-12-27T09:35:23.757Z,3376.00
2022-12-27T09:36:23.742Z,4712.00
2022-12-27T09:37:23.740Z,6148.00
2022-12-27T09:38:23.725Z,7192.00
2022-12-27T09:39:23.742Z,4052.00
2022-12-27T09:40:23.711Z,4532.00
2022-12-27T09:42:25.595Z,3848.00
2022-12-27T09:42:48.637Z,3960.00
2022-12-27T09:43:27.725Z,3812.00
2022-12-27T09:44:24.694Z,3808.00
2022-12-27T09:45:24.671Z,6084.00
2022-12-27T09:46:23.689Z,7056.00
2022-12-27T09:47:23.664Z,4200.00
2022-12-27T09:48:29.263Z,3968.00
2022-12-27T09:49:25.687Z,3724.00
2022-12-27T09:50:23.646Z,4816.00
2022-12-27T09:51:23.632Z,6632.00
2022-12-27T09:52:23.630Z,4856.00
2022-12-27T09:53:23.613Z,6240.00
2022-12-27T09:54:23.629Z,3572.00
2022-12-27T09:55:23.611Z,3432.00
2022-12-27T09:56:23.586Z,3492.00
2022-12-27T09:57:23.594Z,4320.00
2022-12-27T09:58:23.576Z,4180.00
2022-12-27T09:59:23.600Z,5696.00
2022-12-27T10:00:30.221Z,3728.00
2022-12-27T10:01:24.733Z,3656.00
2022-12-27T10:02:23.705Z,4352.00
2022-12-27T10:03:23.539Z,4164.00
2022-12-27T10:04:24.234Z,4528.00
2022-12-27T10:05:23.668Z,4056.00
2022-12-27T10:06:23.514Z,6336.00
2022-12-27T10:07:23.516Z,3960.00
2022-12-27T10:08:23.498Z,3936.00
2022-12-27T10:09:23.489Z,6376.00
2022-12-27T10:10:23.515Z,4028.00
2022-12-27T10:11:23.500Z,3796.00
2022-12-27T10:12:29.630Z,6224.00
2022-12-27T10:13:25.476Z,4616.00
2022-12-27T10:14:23.463Z,5180.00
2022-12-27T10:15:23.474Z,6140.00
2022-12-27T10:16:23.472Z,5288.00
2022-12-27T10:17:23.436Z,4284.00
2022-12-27T10:18:23.427Z,3884.00
2022-12-27T10:19:23.422Z,5336.00
2022-12-27T10:20:23.442Z,5980.00
2022-12-27T10:21:23.407Z,5964.00
2022-12-27T10:22:23.399Z,5464.00
2022-12-27T10:23:23.382Z,4220.00
2022-12-27T10:24:23.394Z,5648.00
2022-12-27T10:25:23.394Z,4664.00
2022-12-27T10:26:23.352Z,5616.00
2022-12-27T10:27:23.364Z,5316.00
2022-12-27T10:28:23.371Z,4200.00
2022-12-27T10:29:23.350Z,4336.00
2022-12-27T10:30:23.366Z,4084.00
2022-12-27T10:31:23.355Z,4216.00
2022-12-27T10:32:23.310Z,4336.00
2022-12-27T10:33:23.329Z,4424.00
2022-12-27T10:34:23.328Z,4308.00
2022-12-27T10:35:23.308Z,4212.00
2022-12-27T10:36:23.294Z,3820.00
2022-12-27T10:37:23.281Z,4228.00
2022-12-27T10:38:23.260Z,3968.00
2022-12-27T10:39:23.258Z,3892.00
2022-12-27T10:40:23.269Z,3836.00
2022-12-27T10:41:23.244Z,3776.00
2022-12-27T10:42:23.227Z,3764.00
2022-12-27T10:43:24.229Z,4228.00
2022-12-27T10:44:23.223Z,3772.00
2022-12-27T10:45:23.240Z,3692.00
2022-12-27T10:46:26.328Z,3544.00
2022-12-27T10:47:25.197Z,3536.00
2022-12-27T10:48:23.187Z,3604.00
2022-12-27T10:49:23.184Z,3644.00
2022-12-27T10:50:23.204Z,3660.00
2022-12-27T10:51:23.167Z,3676.00
2022-12-27T10:52:23.204Z,3900.00
2022-12-27T10:53:23.223Z,3788.00
2022-12-27T10:54:23.162Z,3676.00
2022-12-27T10:55:23.167Z,3600.00
2022-12-27T10:56:23.131Z,4248.00
2022-12-27T10:57:23.128Z,4248.00
2022-12-27T10:58:23.113Z,4424.00
2022-12-27T10:59:23.112Z,4408.00
2022-12-27T11:00:23.140Z,4592.00
2022-12-27T11:01:23.193Z,4600.00
2022-12-27T11:02:23.201Z,4564.00
2022-12-27T11:03:23.074Z,4720.00
2022-12-27T11:04:23.080Z,4612.00
2022-12-27T11:05:23.064Z,4684.00
2022-12-27T11:06:23.089Z,4700.00
2022-12-27T11:07:23.074Z,4812.00
2022-12-27T11:08:23.033Z,4720.00
2022-12-27T11:09:23.024Z,4556.00
2022-12-27T11:10:23.048Z,4436.00
2022-12-27T11:11:23.011Z,4548.00
2022-12-27T11:12:23.008Z,4300.00
2022-12-27T11:13:22.995Z,4628.00
2022-12-27T11:14:22.997Z,4644.00
2022-12-27T11:15:22.980Z,4620.00
2022-12-27T11:16:23.021Z,4500.00
2022-12-27T11:17:22.971Z,4540.00
2022-12-27T11:18:22.969Z,4536.00
2022-12-27T11:19:22.952Z,4372.00
2022-12-27T11:20:22.964Z,4760.00
2022-12-27T11:21:27.764Z,4908.00
2022-12-27T11:22:24.932Z,5076.00
2022-12-27T11:23:22.929Z,5300.00
2022-12-27T11:24:22.928Z,4952.00
2022-12-27T11:25:22.910Z,5204.00
2022-12-27T11:26:22.933Z,5320.00
2022-12-27T11:27:22.887Z,5004.00
2022-12-27T11:28:22.887Z,4568.00
2022-12-27T11:29:22.889Z,4516.00
2022-12-27T11:30:22.867Z,5096.00
2022-12-27T11:31:22.902Z,5368.00
2022-12-27T11:32:22.855Z,5204.00
2022-12-27T11:33:25.197Z,4860.00
2022-12-27T11:34:23.835Z,4296.00
2022-12-27T11:35:22.825Z,4420.00
2022-12-27T11:36:22.847Z,4264.00
2022-12-27T11:37:22.815Z,4372.00
2022-12-27T11:38:22.811Z,4544.00
2022-12-27T11:39:22.799Z,5136.00
2022-12-27T11:40:22.792Z,4788.00
2022-12-27T11:41:27.709Z,4752.00
2022-12-27T11:42:24.776Z,4372.00
2022-12-27T11:43:22.764Z,4480.00
2022-12-27T11:44:22.756Z,4444.00
2022-12-27T11:45:22.752Z,4512.00
2022-12-27T11:46:22.805Z,4408.00
2022-12-27T11:47:22.754Z,4128.00
2022-12-27T11:48:22.729Z,4236.00
2022-12-27T11:49:22.716Z,4404.00
2022-12-27T11:50:22.715Z,3956.00
2022-12-27T11:51:22.731Z,4000.00
2022-12-27T11:52:22.703Z,4256.00
2022-12-27T11:53:22.700Z,4540.00
2022-12-27T11:54:22.691Z,4360.00
2022-12-27T11:55:22.700Z,4188.00
2022-12-27T11:56:22.678Z,4080.00
2022-12-27T11:57:22.709Z,4124.00
2022-12-27T11:58:22.663Z,4128.00
2022-12-27T11:59:22.652Z,3948.00
2022-12-27T12:00:22.648Z,4056.00
2022-12-27T12:01:22.662Z,4388.00
2022-12-27T12:02:22.698Z,4448.00
2022-12-27T12:03:22.632Z,4420.00
2022-12-27T12:04:22.612Z,4544.00
2022-12-27T12:05:22.612Z,4456.00
2022-12-27T12:06:22.591Z,4124.00
2022-12-27T12:07:22.612Z,4128.00
2022-12-27T12:08:22.599Z,4128.00
2022-12-27T12:09:22.569Z,4232.00
2022-12-27T12:10:22.572Z,4120.00
2022-12-27T12:11:22.570Z,3976.00
2022-12-27T12:12:22.575Z,3996.00
2022-12-27T12:13:22.544Z,4004.00
2022-12-27T12:14:22.535Z,4388.00
2022-12-27T12:15:22.529Z,4444.00
2022-12-27T12:16:22.531Z,4516.00
2022-12-27T12:17:22.539Z,4372.00
2022-12-27T12:18:22.509Z,4452.00
2022-12-27T12:19:22.496Z,4524.00
2022-12-27T12:20:22.492Z,4548.00
2022-12-27T12:21:22.491Z,4172.00
2022-12-27T12:22:22.504Z,3992.00
2022-12-27T12:23:22.472Z,4216.00
2022-12-27T12:24:22.473Z,4304.00
2022-12-27T12:25:22.474Z,4084.00
2022-12-27T12:26:22.455Z,4348.00
2022-12-27T12:27:22.465Z,4136.00
2022-12-27T12:28:55.866Z,4320.00
2022-12-27T12:29:24.418Z,4476.00
2022-12-27T12:30:27.086Z,4868.00
2022-12-27T12:31:24.468Z,4752.00
2022-12-27T12:32:22.494Z,4400.00
2022-12-27T12:33:22.390Z,4444.00
2022-12-27T12:34:22.381Z,4508.00
2022-12-27T12:35:22.371Z,5160.00
2022-12-27T12:36:22.376Z,5080.00
2022-12-27T12:37:22.492Z,4820.00
2022-12-27T12:38:22.351Z,4304.00
2022-12-27T12:39:22.346Z,4428.00
2022-12-27T12:40:22.353Z,4400.00
2022-12-27T12:41:22.344Z,4572.00
2022-12-27T12:42:22.515Z,4640.00
2022-12-27T12:43:22.325Z,4604.00
2022-12-27T12:44:22.312Z,4592.00
2022-12-27T12:45:22.302Z,4632.00
2022-12-27T12:46:22.328Z,4112.00